createdAt,value
2023-03-27T00:01:00.841Z,99301.78
2023-03-27T00:03:32.385Z,99312.75
2023-03-27T00:06:01.562Z,99307.44
2023-03-27T00:08:29.491Z,99320.97
2023-03-27T00:10:57.347Z,99323.94
2023-03-27T00:13:25.610Z,99328.44
2023-03-27T00:15:54.978Z,99330.53
2023-03-27T00:18:25.108Z,99332.38
2023-03-27T00:20:54.738Z,99346.31
2023-03-27T00:23:22.397Z,99346.69
2023-03-27T00:25:50.604Z,99350.03
2023-03-27T00:28:18.681Z,99354.25
2023-03-27T00:30:46.463Z,99355.44
2023-03-27T00:33:14.672Z,99369.84
2023-03-27T00:35:46.859Z,99373.97
2023-03-27T00:38:16.935Z,99382.13
2023-03-27T00:40:45.115Z,99380.94
2023-03-27T00:43:20.727Z,99398.03
2023-03-27T00:45:49.085Z,99400.56
2023-03-27T00:48:17.084Z,99401.59
2023-03-27T00:50:46.678Z,99411.50
2023-03-27T00:53:21.878Z,99413.25
2023-03-27T00:55:52.552Z,99414.56
2023-03-27T00:58:23.689Z,99423.69
2023-03-27T01:00:55.155Z,99415.44
2023-03-27T01:03:25.463Z,99422.66
2023-03-27T01:05:55.484Z,99416.00
2023-03-27T01:08:24.880Z,99425.94
2023-03-27T01:11:01.480Z,99443.50
2023-03-27T01:13:47.234Z,99445.66
2023-03-27T01:16:22.572Z,99455.84
2023-03-27T01:19:01.211Z,99454.00
2023-03-27T01:21:56.506Z,99470.53
2023-03-27T01:24:52.904Z,99483.91
2023-03-27T01:27:30.483Z,99480.84
2023-03-27T01:30:08.925Z,99484.78
2023-03-27T01:33:25.193Z,99494.56
2023-03-27T01:36:23.070Z,99501.34
2023-03-27T01:39:22.970Z,99500.63
2023-03-27T01:41:58.807Z,99513.09
2023-03-27T01:44:43.373Z,99510.38
2023-03-27T01:47:22.525Z,99510.81
2023-03-27T01:49:55.556Z,99527.28
2023-03-27T01:52:28.163Z,99530.78
2023-03-27T01:55:03.419Z,99530.03
2023-03-27T01:57:48.808Z,99544.47
2023-03-27T02:00:22.203Z,99534.00
2023-03-27T02:02:55.018Z,99550.09
2023-03-27T02:05:28.844Z,99545.78
2023-03-27T02:08:00.422Z,99551.75
2023-03-27T02:10:32.750Z,99555.41
2023-03-27T02:13:08.169Z,99554.94
2023-03-27T02:15:41.741Z,99560.38
2023-03-27T02:18:12.330Z,99567.38
2023-03-27T02:20:42.038Z,99588.22
2023-03-27T02:23:09.938Z,99581.94
2023-03-27T02:25:39.824Z,99579.25
2023-03-27T02:28:23.681Z,99594.22
2023-03-27T02:31:06.613Z,99599.66
2023-03-27T02:34:08.583Z,99597.31
2023-03-27T02:36:45.434Z,99606.78
2023-03-27T02:39:20.696Z,99613.88
2023-03-27T02:41:54.966Z,99622.00
2023-03-27T02:44:31.090Z,99635.13
2023-03-27T02:47:05.122Z,99641.88
2023-03-27T02:49:37.425Z,99646.22
2023-03-27T02:52:11.178Z,99646.69
2023-03-27T02:54:43.256Z,99640.22
2023-03-27T02:57:16.523Z,99643.72
2023-03-27T02:59:50.507Z,99655.41
2023-03-27T03:02:24.731Z,99664.72
2023-03-27T03:04:59.082Z,99674.84
2023-03-27T03:07:27.174Z,99683.84
2023-03-27T03:09:56.068Z,99691.66
2023-03-27T03:12:24.013Z,99697.09
2023-03-27T03:14:53.247Z,99681.31
2023-03-27T03:17:21.493Z,99690.44
2023-03-27T03:19:49.710Z,99697.53
2023-03-27T03:22:17.363Z,99710.13
2023-03-27T03:24:44.955Z,99710.44
2023-03-27T03:27:14.217Z,99709.56
2023-03-27T03:29:43.704Z,99709.91
2023-03-27T03:32:12.667Z,99717.84
2023-03-27T03:34:44.064Z,99728.78
2023-03-27T03:37:11.610Z,99732.97
2023-03-27T03:39:39.340Z,99737.44
2023-03-27T03:42:07.042Z,99741.03
2023-03-27T03:44:34.925Z,99750.56
2023-03-27T03:47:02.590Z,99748.41
2023-03-27T03:49:31.974Z,99756.28
2023-03-27T03:52:03.684Z,99764.28
2023-03-27T03:54:32.800Z,99773.13
2023-03-27T03:57:00.582Z,99777.59
2023-03-27T03:59:28.505Z,99781.91
2023-03-27T04:01:56.081Z,99790.16
2023-03-27T04:04:23.712Z,99795.69
2023-03-27T04:06:52.962Z,99797.13
2023-03-27T04:09:20.852Z,99804.25
2023-03-27T04:11:48.352Z,99806.19
2023-03-27T04:14:16.317Z,99817.34
2023-03-27T04:16:44.089Z,99821.25
2023-03-27T04:19:11.695Z,99832.50
2023-03-27T04:21:39.328Z,99839.44
2023-03-27T04:24:09.134Z,99845.56
2023-03-27T04:26:36.752Z,99852.84
2023-03-27T04:29:10.186Z,99857.84
2023-03-27T04:31:39.127Z,99857.69
2023-03-27T04:34:08.339Z,99862.81
2023-03-27T04:36:35.987Z,99861.63
2023-03-27T04:39:03.898Z,99867.50
2023-03-27T04:41:32.876Z,99880.91
2023-03-27T04:44:04.758Z,99886.53
2023-03-27T04:46:33.925Z,99893.22
2023-03-27T04:49:01.541Z,99893.47
2023-03-27T04:51:30.724Z,99898.63
2023-03-27T04:53:58.350Z,99907.75
2023-03-27T04:56:26.010Z,99911.63
2023-03-27T04:58:55.346Z,99923.81
2023-03-27T05:01:25.199Z,99929.63
2023-03-27T05:03:53.597Z,99928.78
2023-03-27T05:06:21.278Z,99938.25
2023-03-27T05:08:49.250Z,99941.72
2023-03-27T05:11:16.896Z,99952.53
2023-03-27T05:13:44.521Z,99958.06
2023-03-27T05:16:13.584Z,99954.75
2023-03-27T05:18:42.105Z,99959.06
2023-03-27T05:21:10.702Z,99958.91
2023-03-27T05:23:38.816Z,99969.81
2023-03-27T05:26:06.490Z,99976.78
2023-03-27T05:28:41.261Z,99984.13
2023-03-27T05:31:10.607Z,99985.97
2023-03-27T05:33:39.857Z,99987.38
2023-03-27T05:36:08.243Z,99994.03
2023-03-27T05:38:35.931Z,100000.84
2023-03-27T05:41:04.209Z,100011.66
2023-03-27T05:43:32.081Z,100021.06
2023-03-27T05:45:59.790Z,100028.94
2023-03-27T05:48:27.933Z,100037.31
2023-03-27T05:51:05.901Z,100028.38
2023-03-27T05:53:33.571Z,100042.50
2023-03-27T05:56:02.765Z,100040.88
2023-03-27T05:58:31.561Z,100042.91
2023-03-27T06:00:59.394Z,100048.66
2023-03-27T06:03:30.323Z,100042.84
2023-03-27T06:06:01.011Z,100054.63
2023-03-27T06:08:29.490Z,100057.91
2023-03-27T06:10:57.309Z,100065.53
2023-03-27T06:13:25.152Z,100065.94
2023-03-27T06:15:56.417Z,100075.47
2023-03-27T06:18:29.045Z,100083.00
2023-03-27T06:21:01.710Z,100079.53
2023-03-27T06:23:29.871Z,100092.44
2023-03-27T06:25:58.606Z,100084.69
2023-03-27T06:28:26.791Z,100092.91
2023-03-27T06:30:54.482Z,100105.69
2023-03-27T06:33:22.492Z,100111.53
2023-03-27T06:35:53.425Z,100110.25
2023-03-27T06:38:23.499Z,100109.63
2023-03-27T06:40:51.622Z,100099.75
2023-03-27T06:43:22.313Z,100096.78
2023-03-27T06:45:51.294Z,100106.56
2023-03-27T06:48:22.653Z,100103.25
2023-03-27T06:50:52.442Z,100101.84
2023-03-27T06:53:27.961Z,100115.03
2023-03-27T06:55:57.107Z,100112.69
2023-03-27T06:58:25.301Z,100110.09
2023-03-27T07:00:54.174Z,100113.72
2023-03-27T07:03:23.977Z,100111.03
2023-03-27T07:05:51.685Z,100110.44
2023-03-27T07:08:24.131Z,100116.31
2023-03-27T07:13:26.105Z,100124.72
2023-03-27T07:15:54.826Z,100135.09
2023-03-27T07:18:23.051Z,100127.19
2023-03-27T07:20:51.263Z,100140.00
2023-03-27T07:23:18.847Z,100132.69
2023-03-27T07:25:46.708Z,100143.00
2023-03-27T07:28:18.142Z,100144.06
2023-03-27T07:30:46.135Z,100157.50
2023-03-27T07:33:14.366Z,100159.94
2023-03-27T07:35:43.179Z,100170.13
2023-03-27T07:38:10.854Z,100176.91
2023-03-27T07:40:40.771Z,100178.78
2023-03-27T07:43:09.086Z,100165.91
2023-03-27T07:45:38.457Z,100173.38
2023-03-27T07:48:07.107Z,100170.94
2023-03-27T07:50:36.005Z,100176.47
2023-03-27T07:53:03.955Z,100175.13
2023-03-27T07:55:31.663Z,100169.88
2023-03-27T07:58:03.307Z,100172.63
2023-03-27T08:00:35.503Z,100179.00
2023-03-27T08:03:11.077Z,100179.94
2023-03-27T08:05:41.477Z,100184.34
2023-03-27T08:08:10.944Z,100190.19
2023-03-27T08:10:38.944Z,100188.91
2023-03-27T08:13:06.708Z,100185.75
2023-03-27T08:15:34.289Z,100202.28
2023-03-27T08:18:02.470Z,100184.00
2023-03-27T08:20:31.773Z,100193.16
2023-03-27T08:23:00.672Z,100192.84
2023-03-27T08:25:29.742Z,100192.97
2023-03-27T08:27:57.474Z,100198.19
2023-03-27T08:30:27.412Z,100179.56
2023-03-27T08:32:55.668Z,100200.47
2023-03-27T08:35:23.807Z,100201.44
2023-03-27T08:37:53.908Z,100194.63
2023-03-27T08:40:26.438Z,100202.41
2023-03-27T08:42:57.762Z,100211.19
2023-03-27T08:45:28.436Z,100215.13
2023-03-27T08:48:02.064Z,100219.13
2023-03-27T08:50:34.733Z,100219.66
2023-03-27T08:53:09.046Z,100214.97
2023-03-27T08:55:42.098Z,100224.75
2023-03-27T08:58:18.427Z,100225.53
2023-03-27T09:00:49.810Z,100231.81
2023-03-27T09:03:23.002Z,100241.19
2023-03-27T09:05:56.431Z,100228.91
2023-03-27T09:08:36.952Z,100237.09
2023-03-27T09:11:10.808Z,100230.25
2023-03-27T09:13:43.684Z,100218.50
2023-03-27T09:16:19.736Z,100226.50
2023-03-27T09:18:55.174Z,100233.88
2023-03-27T09:21:32.354Z,100229.94
2023-03-27T09:24:07.260Z,100240.00
2023-03-27T09:26:37.434Z,100236.34
2023-03-27T09:29:19.875Z,100243.59
2023-03-27T09:31:49.702Z,100238.03
2023-03-27T09:34:23.542Z,100242.31
2023-03-27T09:36:51.591Z,100249.03
2023-03-27T09:39:27.418Z,100238.00
2023-03-27T09:42:00.208Z,100247.63
2023-03-27T09:44:37.993Z,100245.59
2023-03-27T09:47:14.242Z,100254.34
2023-03-27T09:49:46.622Z,100245.88
2023-03-27T09:52:35.910Z,100241.72
2023-03-27T09:55:24.155Z,100244.94
2023-03-27T09:57:58.656Z,100251.25
2023-03-27T10:00:31.759Z,100256.53
2023-03-27T10:03:05.718Z,100251.53
2023-03-27T10:05:33.813Z,100266.38
2023-03-27T10:08:02.543Z,100271.09
2023-03-27T10:10:37.783Z,100260.34
2023-03-27T10:13:11.630Z,100258.69
2023-03-27T10:15:41.213Z,100257.09
2023-03-27T10:18:23.732Z,100252.63
2023-03-27T10:20:52.112Z,100255.81
2023-03-27T10:23:25.203Z,100260.84
2023-03-27T10:25:59.571Z,100268.03
2023-03-27T10:28:29.594Z,100266.00
2023-03-27T10:31:02.057Z,100276.28
2023-03-27T10:33:36.344Z,100278.00
2023-03-27T10:36:05.476Z,100266.13
2023-03-27T10:38:34.319Z,100280.72
2023-03-27T10:41:05.158Z,100266.84
2023-03-27T10:43:40.143Z,100277.66
2023-03-27T10:46:13.918Z,100278.28
2023-03-27T10:48:52.030Z,100291.53
2023-03-27T10:51:45.879Z,100289.06
2023-03-27T10:54:19.933Z,100271.06
2023-03-27T10:56:58.106Z,100278.63
2023-03-27T10:59:41.055Z,100278.38
2023-03-27T11:02:18.644Z,100280.72
2023-03-27T11:04:51.795Z,100301.28
2023-03-27T11:07:27.890Z,100297.22
2023-03-27T11:10:03.710Z,100295.25
2023-03-27T11:12:37.904Z,100310.44
2023-03-27T11:15:15.371Z,100302.44
2023-03-27T11:17:48.913Z,100312.41
2023-03-27T11:20:24.961Z,100318.97
2023-03-27T11:23:00.913Z,100323.22
2023-03-27T11:25:38.765Z,100334.31
2023-03-27T11:28:21.012Z,100337.72
2023-03-27T11:30:55.976Z,100340.13
2023-03-27T11:33:38.290Z,100338.69
2023-03-27T11:36:34.066Z,100352.41
2023-03-27T11:39:15.252Z,100351.75
2023-03-27T11:41:43.653Z,100356.69
2023-03-27T11:44:12.678Z,100348.75
2023-03-27T11:46:56.291Z,100355.84
2023-03-27T11:49:37.470Z,100353.91
2023-03-27T11:52:15.601Z,100353.16
2023-03-27T11:54:58.507Z,100352.94
2023-03-27T11:57:27.488Z,100361.38
2023-03-27T12:00:28.017Z,100368.97
2023-03-27T12:03:19.215Z,100375.50
2023-03-27T12:05:58.966Z,100391.25
2023-03-27T12:08:40.954Z,100374.41
2023-03-27T12:11:11.981Z,100381.44
2023-03-27T12:14:02.035Z,100389.75
2023-03-27T12:16:48.902Z,100388.94
2023-03-27T12:19:38.972Z,100390.94
2023-03-27T12:22:24.312Z,100406.13
2023-03-27T12:25:04.819Z,100401.09
2023-03-27T12:27:49.795Z,100400.56
2023-03-27T12:30:26.772Z,100404.41
2023-03-27T12:33:12.741Z,100397.59
2023-03-27T12:35:47.074Z,100402.47
2023-03-27T12:38:23.665Z,100403.63
2023-03-27T12:41:03.106Z,100405.47
2023-03-27T12:43:33.820Z,100413.78
2023-03-27T12:46:17.504Z,100412.94
2023-03-27T12:48:52.789Z,100408.19
2023-03-27T12:51:21.571Z,100399.66
2023-03-27T12:53:51.805Z,100396.28
2023-03-27T12:56:27.333Z,100392.47
2023-03-27T12:58:56.736Z,100392.25
2023-03-27T13:01:52.199Z,100381.75
2023-03-27T13:04:44.628Z,100389.94
2023-03-27T13:07:20.060Z,100391.88
2023-03-27T13:09:59.553Z,100395.09
2023-03-27T13:12:46.194Z,100387.34
2023-03-27T13:15:31.555Z,100394.50
2023-03-27T13:18:28.998Z,100403.53
2023-03-27T13:21:08.621Z,100388.50
2023-03-27T13:23:56.009Z,100388.13
2023-03-27T13:26:37.530Z,100386.69
2023-03-27T13:29:16.351Z,100400.91
2023-03-27T13:31:58.498Z,100399.00
2023-03-27T13:34:37.260Z,100388.53
2023-03-27T13:37:48.319Z,100391.81
2023-03-27T13:40:23.289Z,100396.63
2023-03-27T13:42:54.187Z,100405.91
2023-03-27T13:45:26.256Z,100412.59
2023-03-27T13:48:30.237Z,100413.19
2023-03-27T13:51:22.969Z,100409.25
2023-03-27T13:54:04.052Z,100408.13
2023-03-27T13:56:42.018Z,100409.94
2023-03-27T13:59:36.720Z,100418.78
2023-03-27T14:02:26.099Z,100433.44
2023-03-27T14:05:10.897Z,100438.41
2023-03-27T14:08:00.766Z,100439.47
2023-03-27T14:10:43.878Z,100438.00
2023-03-27T14:13:32.311Z,100439.31
2023-03-27T14:16:22.364Z,100438.31
2023-03-27T14:19:07.985Z,100445.66
2023-03-27T14:21:52.255Z,100438.13
2023-03-27T14:24:32.438Z,100444.16
2023-03-27T14:27:02.632Z,100443.63
2023-03-27T14:29:32.368Z,100433.50
2023-03-27T14:32:04.333Z,100449.06
2023-03-27T14:34:47.220Z,100443.06
2023-03-27T14:37:37.534Z,100448.72
2023-03-27T14:40:20.940Z,100446.22
2023-03-27T14:42:51.141Z,100437.47
2023-03-27T14:45:24.281Z,100438.69
2023-03-27T14:47:55.609Z,100432.63
2023-03-27T14:50:25.044Z,100442.38
2023-03-27T14:53:02.892Z,100439.69
2023-03-27T14:55:35.744Z,100443.19
2023-03-27T14:58:11.490Z,100449.56
2023-03-27T15:00:42.101Z,100444.75
2023-03-27T15:03:16.074Z,100451.06
2023-03-27T15:05:57.216Z,100460.94
2023-03-27T15:08:28.599Z,100465.78
2023-03-27T15:10:56.929Z,100479.66
2023-03-27T15:13:27.494Z,100496.19
2023-03-27T15:15:59.262Z,100500.16
2023-03-27T15:18:33.233Z,100510.97
2023-03-27T15:21:04.120Z,100515.66
2023-03-27T15:23:38.940Z,100514.63
2023-03-27T15:26:12.826Z,100514.97
2023-03-27T15:28:49.865Z,100519.56
2023-03-27T15:31:18.922Z,100529.28
2023-03-27T15:33:53.456Z,100532.50
2023-03-27T15:36:27.717Z,100530.41
2023-03-27T15:38:56.637Z,100517.34
2023-03-27T15:41:39.386Z,100524.31
2023-03-27T15:44:12.932Z,100508.31
2023-03-27T15:46:53.477Z,100520.69
2023-03-27T15:49:24.521Z,100519.03
2023-03-27T15:51:52.598Z,100516.72
2023-03-27T15:54:27.108Z,100519.31
2023-03-27T15:57:10.588Z,100523.41
2023-03-27T15:59:52.047Z,100532.63
2023-03-27T16:02:22.979Z,100540.38
2023-03-27T16:04:54.911Z,100546.22
2023-03-27T16:07:27.653Z,100535.91
2023-03-27T16:09:58.305Z,100537.88
2023-03-27T16:12:31.334Z,100546.03
2023-03-27T16:15:04.318Z,100548.41
2023-03-27T16:17:39.474Z,100554.78
2023-03-27T16:20:40.200Z,100557.28
2023-03-27T16:23:07.807Z,100565.16
2023-03-27T16:25:35.401Z,100566.13
2023-03-27T16:28:03.382Z,100559.78
2023-03-27T16:30:35.276Z,100563.13
2023-03-27T16:33:03.913Z,100563.13
2023-03-27T16:35:32.370Z,100568.97
2023-03-27T16:38:02.084Z,100565.81
2023-03-27T16:40:29.602Z,100552.75
2023-03-27T16:42:57.480Z,100559.38
2023-03-27T16:45:25.424Z,100560.88
2023-03-27T16:47:54.833Z,100558.31
2023-03-27T16:50:25.610Z,100566.81
2023-03-27T16:52:53.942Z,100565.09
2023-03-27T16:55:21.666Z,100568.72
2023-03-27T16:57:49.558Z,100579.72
2023-03-27T17:00:20.041Z,100579.72
2023-03-27T17:02:48.393Z,100595.72
2023-03-27T17:05:18.891Z,100592.81
2023-03-27T17:07:49.717Z,100601.81
2023-03-27T17:10:17.693Z,100602.59
2023-03-27T17:12:45.596Z,100595.38
2023-03-27T17:15:15.012Z,100601.38
2023-03-27T17:17:42.643Z,100610.72
2023-03-27T17:20:12.067Z,100618.09
2023-03-27T17:22:41.159Z,100628.09
2023-03-27T17:25:09.945Z,100639.03
2023-03-27T17:27:37.699Z,100639.41
2023-03-27T17:30:06.695Z,100634.28
2023-03-27T17:32:34.730Z,100645.94
2023-03-27T17:35:04.516Z,100656.75
2023-03-27T17:37:32.570Z,100660.06
2023-03-27T17:40:01.650Z,100663.38
2023-03-27T17:42:29.279Z,100661.63
2023-03-27T17:44:57.006Z,100672.00
2023-03-27T17:47:26.898Z,100661.03
2023-03-27T17:49:54.671Z,100655.50
2023-03-27T17:52:23.679Z,100665.53
2023-03-27T17:54:51.375Z,100670.06
2023-03-27T17:57:20.698Z,100679.31
2023-03-27T17:59:48.335Z,100684.81
2023-03-27T18:02:18.270Z,100686.50
2023-03-27T18:04:48.032Z,100686.09
2023-03-27T18:07:16.785Z,100695.75
2023-03-27T18:09:44.459Z,100699.09
2023-03-27T18:12:12.157Z,100702.47
2023-03-27T18:14:41.500Z,100704.91
2023-03-27T18:17:09.211Z,100709.22
2023-03-27T18:19:37.288Z,100718.75
2023-03-27T18:22:05.134Z,100713.63
2023-03-27T18:24:32.904Z,100712.53
2023-03-27T18:27:00.658Z,100718.69
2023-03-27T18:29:30.984Z,100719.94
2023-03-27T18:32:00.320Z,100728.63
2023-03-27T18:34:28.126Z,100734.06
2023-03-27T18:36:56.288Z,100739.53
2023-03-27T18:39:24.092Z,100740.22
2023-03-27T18:41:53.269Z,100751.00
2023-03-27T18:44:21.480Z,100750.75
2023-03-27T18:46:49.157Z,100759.13
2023-03-27T18:49:24.675Z,100755.09
2023-03-27T18:51:52.837Z,100762.91
2023-03-27T18:54:21.457Z,100764.88
2023-03-27T18:56:49.367Z,100767.66
2023-03-27T18:59:17.480Z,100765.84
2023-03-27T19:01:45.090Z,100761.78
2023-03-27T19:04:14.503Z,100768.34
2023-03-27T19:06:46.614Z,100773.81
2023-03-27T19:09:14.731Z,100772.00
2023-03-27T19:11:43.784Z,100783.31
2023-03-27T19:14:12.215Z,100784.59
2023-03-27T19:16:40.109Z,100785.97
2023-03-27T19:19:07.833Z,100782.88
2023-03-27T19:21:35.769Z,100791.69
2023-03-27T19:24:05.288Z,100794.94
2023-03-27T19:26:35.144Z,100798.72
2023-03-27T19:29:02.815Z,100801.91
2023-03-27T19:31:33.468Z,100809.75
2023-03-27T19:34:02.028Z,100819.53
2023-03-27T19:36:30.181Z,100809.59
2023-03-27T19:38:58.532Z,100805.69
2023-03-27T19:41:28.052Z,100817.44
2023-03-27T19:43:56.159Z,100818.97
2023-03-27T19:46:25.002Z,100821.91
2023-03-27T19:48:53.027Z,100822.00
2023-03-27T19:51:21.345Z,100823.41
2023-03-27T19:53:49.045Z,100829.00
2023-03-27T19:56:16.924Z,100828.03
2023-03-27T19:58:46.019Z,100833.75
2023-03-27T20:01:13.769Z,100844.22
2023-03-27T20:03:41.869Z,100847.03
2023-03-27T20:06:18.036Z,100848.44
2023-03-27T20:08:46.602Z,100845.53
2023-03-27T20:11:14.567Z,100852.53
2023-03-27T20:13:55.628Z,100855.34
2023-03-27T20:16:27.923Z,100857.56
2023-03-27T20:19:04.330Z,100867.78
2023-03-27T20:21:34.345Z,100869.31
2023-03-27T20:24:02.323Z,100865.69
2023-03-27T20:26:32.445Z,100868.31
2023-03-27T20:29:00.398Z,100873.22
2023-03-27T20:31:29.557Z,100866.63
2023-03-27T20:33:57.611Z,100861.00
2023-03-27T20:36:25.344Z,100857.78
2023-03-27T20:38:53.527Z,100865.34
2023-03-27T20:41:21.775Z,100866.78
2023-03-27T20:43:50.944Z,100875.00
2023-03-27T20:46:18.776Z,100878.03
2023-03-27T20:48:54.140Z,100872.47
2023-03-27T20:51:25.138Z,100874.22
2023-03-27T20:53:56.129Z,100874.22
2023-03-27T20:56:29.195Z,100879.22
2023-03-27T20:58:57.314Z,100878.22
2023-03-27T21:01:27.483Z,100882.13
2023-03-27T21:03:58.460Z,100880.72
2023-03-27T21:06:26.547Z,100876.38
2023-03-27T21:08:54.660Z,100879.19
2023-03-27T21:11:22.820Z,100875.44
2023-03-27T21:13:51.291Z,100878.69
2023-03-27T21:16:19.486Z,100886.31
2023-03-27T21:18:47.401Z,100885.06
2023-03-27T21:21:16.649Z,100894.28
2023-03-27T21:23:44.673Z,100892.16
2023-03-27T21:26:14.599Z,100886.25
2023-03-27T21:28:42.451Z,100894.50
2023-03-27T21:31:11.470Z,100896.69
2023-03-27T21:33:40.117Z,100902.25
2023-03-27T21:36:10.003Z,100907.28
2023-03-27T21:38:38.997Z,100904.63
2023-03-27T21:41:07.853Z,100909.50
2023-03-27T21:43:35.523Z,100907.22
2023-03-27T21:46:04.694Z,100914.09
2023-03-27T21:48:32.297Z,100911.75
2023-03-27T21:51:01.119Z,100909.69
2023-03-27T21:53:28.863Z,100916.88
2023-03-27T21:55:58.522Z,100919.34
2023-03-27T21:58:27.011Z,100914.47
2023-03-27T22:00:57.200Z,100922.25
2023-03-27T22:03:25.032Z,100916.69
2023-03-27T22:06:07.996Z,100917.88
2023-03-27T22:08:39.277Z,100917.19
2023-03-27T22:11:08.363Z,100924.06
2023-03-27T22:13:36.897Z,100932.25
2023-03-27T22:16:11.890Z,100919.34
2023-03-27T22:18:39.736Z,100932.44
2023-03-27T22:21:16.417Z,100932.50
2023-03-27T22:23:46.284Z,100943.59
2023-03-27T22:26:15.283Z,100949.88
2023-03-27T22:28:43.089Z,100948.34
2023-03-27T22:31:11.490Z,100950.63
2023-03-27T22:33:39.717Z,100948.94
2023-03-27T22:36:11.025Z,100948.34
2023-03-27T22:38:39.386Z,100949.44
2023-03-27T22:41:09.372Z,100951.38
2023-03-27T22:43:38.632Z,100955.00
2023-03-27T22:46:07.067Z,100957.28
2023-03-27T22:48:35.332Z,100968.88
2023-03-27T22:51:03.630Z,100965.91
2023-03-27T22:53:32.580Z,100964.00
2023-03-27T22:56:01.165Z,100972.22
2023-03-27T22:58:31.674Z,100975.00
2023-03-27T23:01:00.676Z,100980.53
2023-03-27T23:03:28.756Z,100982.66
2023-03-27T23:05:57.286Z,100980.63
2023-03-27T23:08:28.208Z,100976.41
2023-03-27T23:10:57.164Z,100986.84
2023-03-27T23:13:25.407Z,100988.56
2023-03-27T23:15:53.148Z,100990.50
2023-03-27T23:18:24.499Z,100994.00
2023-03-27T23:20:56.087Z,100997.16
2023-03-27T23:23:23.798Z,100995.94
2023-03-27T23:25:51.538Z,101003.66
2023-03-27T23:28:19.290Z,101005.28
2023-03-27T23:30:53.672Z,101007.69
2023-03-27T23:33:24.764Z,101011.41
2023-03-27T23:35:52.482Z,101019.13
2023-03-27T23:38:20.169Z,101023.59
2023-03-27T23:40:54.831Z,101016.09
2023-03-27T23:43:22.426Z,101031.50
2023-03-27T23:45:49.994Z,101037.13
2023-03-27T23:48:17.761Z,101033.56
2023-03-27T23:50:46.783Z,101025.94
2023-03-27T23:53:14.534Z,101037.13
2023-03-27T23:55:42.061Z,101037.34
2023-03-27T23:58:09.657Z,101046.88
